createdAt,value
2018-05-27T00:00:32.976Z,3.87
2018-05-27T00:03:01.227Z,3.43
2018-05-27T00:05:29.455Z,4.00
2018-05-27T00:07:57.979Z,3.53
2018-05-27T00:10:26.199Z,4.37
2018-05-27T00:12:54.453Z,4.07
2018-05-27T00:15:22.682Z,4.13
2018-05-27T00:17:50.923Z,4.57
2018-05-27T00:20:19.168Z,4.17
2018-05-27T00:22:48.176Z,4.13
2018-05-27T00:25:16.420Z,4.20
2018-05-27T00:27:44.651Z,5.60
2018-05-27T00:30:13.226Z,5.30
2018-05-27T00:32:41.439Z,4.80
2018-05-27T00:35:09.675Z,5.00
2018-05-27T00:37:37.922Z,4.40
2018-05-27T00:40:06.150Z,4.37
2018-05-27T00:42:34.637Z,4.77
2018-05-27T00:45:02.857Z,4.20
2018-05-27T00:47:31.085Z,4.93
2018-05-27T00:49:59.391Z,4.17
2018-05-27T00:52:27.559Z,3.60
2018-05-27T00:54:55.800Z,4.00
2018-05-27T00:57:24.029Z,5.53
2018-05-27T00:59:52.661Z,5.83
2018-05-27T01:02:20.859Z,4.27
2018-05-27T01:04:49.105Z,4.77
2018-05-27T01:07:17.331Z,3.87
2018-05-27T01:09:45.570Z,4.87
2018-05-27T01:12:14.568Z,4.50
2018-05-27T01:14:43.571Z,4.57
2018-05-27T01:17:11.804Z,4.30
2018-05-27T01:19:40.038Z,4.50
2018-05-27T01:22:08.263Z,6.33
2018-05-27T01:24:37.270Z,4.70
2018-05-27T01:27:06.271Z,4.73
2018-05-27T01:29:34.946Z,4.37
2018-05-27T01:32:03.162Z,4.40
2018-05-27T01:34:31.402Z,5.00
2018-05-27T01:36:59.967Z,5.73
2018-05-27T01:39:28.194Z,5.33
2018-05-27T01:41:56.430Z,4.83
2018-05-27T01:44:25.439Z,4.47
2018-05-27T01:46:53.675Z,4.70
2018-05-27T01:49:22.690Z,5.93
2018-05-27T01:51:50.925Z,5.30
2018-05-27T01:54:19.163Z,4.97
2018-05-27T01:56:47.402Z,4.90
2018-05-27T01:59:18.736Z,4.90
2018-05-27T02:01:46.945Z,5.00
2018-05-27T02:04:15.195Z,6.03
2018-05-27T02:06:44.199Z,5.63
2018-05-27T02:09:12.446Z,5.57
2018-05-27T02:11:41.448Z,5.93
2018-05-27T02:14:10.455Z,5.80
2018-05-27T02:16:38.679Z,8.67
2018-05-27T02:19:06.927Z,5.33
2018-05-27T02:21:35.163Z,6.00
2018-05-27T02:24:04.174Z,5.93
2018-05-27T02:26:32.394Z,6.00
2018-05-27T02:29:00.647Z,5.87
2018-05-27T02:31:28.882Z,6.43
2018-05-27T02:33:57.876Z,6.30
2018-05-27T02:36:26.131Z,5.87
2018-05-27T02:38:55.196Z,5.93
2018-05-27T02:41:23.423Z,6.27
2018-05-27T02:43:51.647Z,6.30
2018-05-27T02:46:19.887Z,6.10
2018-05-27T02:48:48.123Z,6.40
2018-05-27T02:51:17.132Z,7.00
2018-05-27T02:53:45.360Z,5.97
2018-05-27T02:56:13.604Z,6.30
2018-05-27T02:58:41.826Z,6.47
2018-05-27T03:01:10.067Z,6.10
2018-05-27T03:03:38.302Z,6.70
2018-05-27T03:06:06.861Z,6.97
2018-05-27T03:08:35.087Z,6.60
2018-05-27T03:11:03.327Z,7.03
2018-05-27T03:13:32.322Z,6.70
2018-05-27T03:16:00.562Z,6.53
2018-05-27T03:18:28.787Z,6.97
2018-05-27T03:20:57.028Z,6.80
2018-05-27T03:23:26.030Z,6.47
2018-05-27T03:25:55.035Z,6.77
2018-05-27T03:28:23.274Z,7.80
2018-05-27T03:30:51.515Z,7.63
2018-05-27T03:33:19.745Z,8.40
2018-05-27T03:35:48.012Z,9.50
2018-05-27T03:38:17.008Z,8.00
2018-05-27T03:40:46.015Z,8.00
2018-05-27T03:43:14.251Z,8.13
2018-05-27T03:45:42.490Z,8.33
2018-05-27T03:48:10.727Z,8.20
2018-05-27T03:50:38.971Z,8.67
2018-05-27T03:53:07.195Z,9.03
2018-05-27T03:55:35.443Z,7.90
2018-05-27T03:58:04.439Z,8.17
2018-05-27T04:00:33.501Z,8.50
2018-05-27T04:03:02.083Z,8.20
2018-05-27T04:05:42.237Z,9.07
2018-05-27T04:08:22.354Z,8.93
2018-05-27T04:10:50.591Z,9.97
2018-05-27T04:13:18.829Z,8.87
2018-05-27T04:15:47.067Z,9.10
2018-05-27T04:18:15.793Z,8.57
2018-05-27T04:20:44.020Z,8.63
2018-05-27T04:23:12.260Z,9.40
2018-05-27T04:25:41.269Z,9.13
2018-05-27T04:28:09.502Z,9.67
2018-05-27T04:30:37.759Z,8.50
2018-05-27T04:33:05.988Z,8.63
2018-05-27T04:35:34.221Z,9.83
2018-05-27T04:38:02.459Z,9.07
2018-05-27T04:40:30.700Z,9.30
2018-05-27T04:42:59.704Z,9.53
2018-05-27T04:45:27.929Z,9.43
2018-05-27T04:47:56.176Z,10.23
2018-05-27T04:50:24.456Z,10.37
2018-05-27T04:52:53.432Z,10.23
2018-05-27T04:55:21.666Z,10.30
2018-05-27T04:57:50.668Z,12.17
2018-05-27T05:00:18.912Z,10.63
2018-05-27T05:02:47.172Z,11.27
2018-05-27T05:05:15.420Z,11.33
2018-05-27T05:07:43.676Z,11.07
2018-05-27T05:10:11.926Z,11.13
2018-05-27T05:12:40.941Z,11.23
2018-05-27T05:15:09.177Z,11.50
2018-05-27T05:17:37.423Z,11.97
2018-05-27T05:20:05.660Z,10.73
2018-05-27T05:22:33.915Z,12.27
2018-05-27T05:25:02.950Z,11.97
2018-05-27T05:27:31.204Z,11.60
2018-05-27T05:29:59.442Z,12.17
2018-05-27T05:32:27.690Z,12.33
2018-05-27T05:34:55.932Z,11.20
2018-05-27T05:37:24.183Z,12.13
2018-05-27T05:39:53.195Z,12.30
2018-05-27T05:42:21.450Z,12.17
2018-05-27T05:44:50.455Z,12.47
2018-05-27T05:47:18.714Z,12.77
2018-05-27T05:49:47.722Z,12.27
2018-05-27T05:52:15.975Z,12.13
2018-05-27T05:54:44.978Z,12.33
2018-05-27T05:57:13.638Z,11.97
2018-05-27T05:59:41.860Z,12.23
2018-05-27T06:02:10.112Z,12.83
2018-05-27T06:04:38.361Z,13.50
2018-05-27T06:07:06.603Z,12.03
2018-05-27T06:09:34.839Z,12.50
2018-05-27T06:12:03.491Z,12.20
2018-05-27T06:14:31.698Z,12.20
2018-05-27T06:17:00.358Z,11.73
2018-05-27T06:19:29.367Z,11.23
2018-05-27T06:21:57.627Z,11.17
2018-05-27T06:24:26.640Z,11.77
2018-05-27T06:26:54.890Z,11.60
2018-05-27T06:29:23.972Z,11.97
2018-05-27T06:31:52.657Z,11.60
2018-05-27T06:34:20.881Z,11.37
2018-05-27T06:36:49.617Z,11.27
2018-05-27T06:39:17.839Z,11.20
2018-05-27T06:41:46.075Z,11.23
2018-05-27T06:44:15.091Z,11.60
2018-05-27T06:46:43.335Z,11.23
2018-05-27T06:49:12.355Z,10.70
2018-05-27T06:51:41.106Z,10.23
2018-05-27T06:54:09.318Z,10.40
2018-05-27T06:56:37.964Z,11.50
2018-05-27T06:59:06.195Z,11.10
2018-05-27T07:01:34.439Z,10.60
2018-05-27T07:04:02.696Z,10.03
2018-05-27T07:06:31.696Z,10.97
2018-05-27T07:09:00.709Z,9.57
2018-05-27T07:11:29.353Z,11.17
2018-05-27T07:13:57.570Z,10.20
2018-05-27T07:16:25.803Z,10.50
2018-05-27T07:18:54.071Z,10.33
2018-05-27T07:21:22.655Z,10.47
2018-05-27T07:23:50.870Z,9.90
2018-05-27T07:26:19.108Z,9.87
2018-05-27T07:28:47.350Z,10.07
2018-05-27T07:31:15.576Z,9.53
2018-05-27T07:33:43.827Z,9.57
2018-05-27T07:36:12.061Z,9.63
2018-05-27T07:38:40.295Z,9.43
2018-05-27T07:41:08.526Z,9.83
2018-05-27T07:43:36.771Z,9.80
2018-05-27T07:46:05.000Z,8.50
2018-05-27T07:48:33.244Z,8.63
2018-05-27T07:51:01.467Z,8.87
2018-05-27T07:53:29.731Z,8.40
2018-05-27T07:55:58.727Z,8.57
2018-05-27T07:58:27.849Z,8.47
2018-05-27T08:00:55.974Z,8.63
2018-05-27T08:03:24.220Z,8.07
2018-05-27T08:05:52.447Z,8.83
2018-05-27T08:08:20.690Z,7.90
2018-05-27T08:10:48.918Z,9.40
2018-05-27T08:13:17.159Z,8.47
2018-05-27T08:15:46.160Z,8.60
2018-05-27T08:18:14.402Z,8.60
2018-05-27T08:20:42.631Z,9.10
2018-05-27T08:23:11.157Z,8.73
2018-05-27T08:25:39.371Z,8.93
2018-05-27T08:28:07.712Z,8.53
2018-05-27T08:30:35.961Z,10.50
2018-05-27T08:33:04.183Z,8.90
2018-05-27T08:35:32.426Z,8.50
2018-05-27T08:38:00.665Z,7.97
2018-05-27T08:40:28.906Z,10.63
2018-05-27T08:42:57.134Z,8.53
2018-05-27T08:45:25.384Z,8.10
2018-05-27T08:47:53.620Z,8.63
2018-05-27T08:50:22.627Z,8.57
2018-05-27T08:52:50.867Z,9.00
2018-05-27T08:55:19.105Z,9.38
2018-05-27T08:57:48.102Z,9.30
2018-05-27T09:00:16.347Z,9.77
2018-05-27T09:02:44.589Z,9.38
2018-05-27T09:05:13.586Z,8.82
2018-05-27T09:07:42.583Z,9.15
2018-05-27T09:10:10.820Z,8.95
2018-05-27T09:12:39.043Z,7.62
2018-05-27T09:15:07.359Z,7.95
2018-05-27T09:17:36.290Z,9.43
2018-05-27T09:20:05.846Z,7.37
2018-05-27T09:22:35.199Z,7.60
2018-05-27T09:25:03.740Z,7.40
2018-05-27T09:27:32.672Z,8.07
2018-05-27T09:30:01.690Z,7.97
2018-05-27T09:32:32.296Z,7.30
2018-05-27T09:35:00.545Z,6.68
2018-05-27T09:37:28.777Z,8.40
2018-05-27T09:39:57.044Z,6.80
2018-05-27T09:42:25.475Z,7.53
2018-05-27T09:44:53.715Z,7.05
2018-05-27T09:47:21.952Z,6.50
2018-05-27T09:49:50.199Z,6.82
2018-05-27T09:52:19.199Z,8.10
2018-05-27T09:54:48.227Z,7.18
2018-05-27T09:57:16.459Z,6.45
2018-05-27T09:59:45.458Z,8.05
2018-05-27T10:02:14.479Z,10.38
2018-05-27T10:04:42.712Z,5.82
2018-05-27T10:07:11.727Z,7.10
2018-05-27T10:09:39.983Z,8.95
2018-05-27T10:12:08.987Z,6.00
2018-05-27T10:14:37.655Z,6.50
2018-05-27T10:17:05.898Z,6.43
2018-05-27T10:19:34.127Z,6.28
2018-05-27T10:22:02.371Z,6.07
2018-05-27T10:24:30.631Z,7.22
2018-05-27T10:26:58.838Z,5.97
2018-05-27T10:29:27.075Z,6.00
2018-05-27T10:31:55.332Z,5.90
2018-05-27T10:34:23.568Z,8.52
2018-05-27T10:36:52.650Z,6.03
2018-05-27T10:39:21.717Z,8.65
2018-05-27T10:41:49.955Z,6.75
2018-05-27T10:44:18.183Z,6.40
2018-05-27T10:46:47.195Z,6.37
2018-05-27T10:49:15.444Z,6.37
2018-05-27T10:51:44.528Z,6.10
2018-05-27T10:54:12.912Z,6.10
2018-05-27T10:56:41.177Z,5.75
2018-05-27T10:59:09.396Z,6.10
2018-05-27T11:01:37.709Z,6.62
2018-05-27T11:04:06.751Z,5.70
2018-05-27T11:06:34.983Z,5.20
2018-05-27T11:09:03.247Z,5.55
2018-05-27T11:11:31.515Z,6.20
2018-05-27T11:14:00.013Z,8.13
2018-05-27T11:16:28.245Z,6.32
2018-05-27T11:18:56.501Z,6.20
2018-05-27T11:21:25.501Z,5.82
2018-05-27T11:23:53.746Z,5.50
2018-05-27T11:26:24.883Z,6.15
2018-05-27T11:28:54.439Z,7.93
2018-05-27T11:31:22.678Z,6.00
2018-05-27T11:33:51.684Z,5.43
2018-05-27T11:36:20.179Z,6.00
2018-05-27T11:38:48.416Z,5.82
2018-05-27T11:41:17.415Z,7.12
2018-05-27T11:43:47.614Z,6.60
2018-05-27T11:46:15.831Z,5.70
2018-05-27T11:48:44.573Z,6.05
2018-05-27T11:51:12.807Z,6.22
2018-05-27T11:53:41.027Z,5.80
2018-05-27T11:56:10.523Z,7.78
2018-05-27T11:58:38.769Z,8.00
2018-05-27T12:01:07.003Z,6.68
2018-05-27T12:03:35.244Z,7.07
2018-05-27T12:06:03.510Z,6.22
2018-05-27T12:08:31.746Z,7.55
2018-05-27T12:11:00.851Z,6.68
2018-05-27T12:13:29.588Z,8.45
2018-05-27T12:15:58.637Z,6.15
2018-05-27T12:18:27.056Z,6.10
2018-05-27T12:20:55.291Z,6.25
2018-05-27T12:23:23.529Z,6.30
2018-05-27T12:25:51.771Z,5.45
2018-05-27T12:28:20.768Z,8.13
2018-05-27T12:30:49.779Z,7.07
2018-05-27T12:33:18.052Z,5.87
2018-05-27T12:35:47.047Z,6.78
2018-05-27T12:38:15.285Z,5.82
2018-05-27T12:40:43.532Z,5.93
2018-05-27T12:43:11.770Z,5.72
2018-05-27T12:45:40.327Z,5.72
2018-05-27T12:48:08.549Z,5.82
2018-05-27T12:50:36.818Z,6.70
2018-05-27T12:53:05.043Z,5.95
2018-05-27T12:55:33.295Z,6.20
2018-05-27T12:58:01.529Z,5.30
2018-05-27T13:00:29.846Z,6.85
2018-05-27T13:02:58.096Z,6.30
2018-05-27T13:05:26.327Z,5.87
2018-05-27T13:07:55.331Z,5.65
2018-05-27T13:10:23.570Z,6.28
2018-05-27T13:12:51.807Z,6.30
2018-05-27T13:15:20.043Z,5.85
2018-05-27T13:17:49.059Z,5.85
2018-05-27T13:20:17.296Z,5.87
2018-05-27T13:22:45.531Z,6.65
2018-05-27T13:25:13.770Z,5.47
2018-05-27T13:27:42.023Z,5.55
2018-05-27T13:30:11.024Z,5.47
2018-05-27T13:32:40.031Z,10.18
2018-05-27T13:35:08.776Z,8.02
2018-05-27T13:37:37.003Z,8.73
2018-05-27T13:40:05.232Z,5.30
2018-05-27T13:42:34.259Z,8.45
2018-05-27T13:45:02.930Z,7.30
2018-05-27T13:47:31.139Z,6.82
2018-05-27T13:49:59.374Z,5.82
2018-05-27T13:52:27.615Z,6.22
2018-05-27T13:54:55.855Z,5.40
2018-05-27T13:57:24.106Z,5.70
2018-05-27T13:59:52.338Z,5.37
2018-05-27T14:02:20.575Z,5.47
2018-05-27T14:04:48.810Z,5.85
2018-05-27T14:07:17.814Z,6.60
2018-05-27T14:09:46.041Z,6.72
2018-05-27T14:12:14.302Z,5.18
2018-05-27T14:14:42.526Z,5.90
2018-05-27T14:17:10.786Z,5.85
2018-05-27T14:19:39.007Z,6.22
2018-05-27T14:22:07.252Z,5.68
2018-05-27T14:24:36.624Z,5.78
2018-05-27T14:27:04.823Z,5.95
2018-05-27T14:29:33.170Z,5.75
2018-05-27T14:32:01.403Z,6.00
2018-05-27T14:34:29.639Z,5.45
2018-05-27T14:36:58.640Z,5.75
2018-05-27T14:39:27.655Z,6.60
2018-05-27T14:41:55.888Z,7.85
2018-05-27T14:44:24.895Z,5.82
2018-05-27T14:46:53.136Z,5.57
2018-05-27T14:49:21.375Z,5.70
2018-05-27T14:51:49.987Z,6.18
2018-05-27T14:54:18.214Z,5.65
2018-05-27T14:56:46.458Z,6.35
2018-05-27T14:59:15.471Z,6.00
2018-05-27T15:01:43.708Z,5.75
2018-05-27T15:04:11.972Z,6.15
2018-05-27T15:06:40.247Z,5.60
2018-05-27T15:09:08.467Z,6.80
2018-05-27T15:11:36.711Z,5.82
2018-05-27T15:14:04.953Z,6.82
2018-05-27T15:16:33.190Z,5.65
2018-05-27T15:19:01.439Z,5.75
2018-05-27T15:21:30.438Z,6.05
2018-05-27T15:23:59.459Z,6.82
2018-05-27T15:26:27.692Z,5.68
2018-05-27T15:28:56.706Z,7.55
2018-05-27T15:31:24.940Z,5.78
2018-05-27T15:33:53.179Z,6.20
2018-05-27T15:36:21.411Z,6.10
2018-05-27T15:38:50.763Z,6.82
2018-05-27T15:41:20.589Z,6.40
2018-05-27T15:43:50.283Z,6.10
2018-05-27T15:46:20.820Z,6.10
2018-05-27T15:48:50.468Z,6.47
2018-05-27T15:51:19.365Z,5.95
2018-05-27T15:53:47.905Z,6.25
2018-05-27T15:56:17.223Z,6.05
2018-05-27T15:58:45.500Z,6.75
2018-05-27T16:01:13.718Z,6.47
2018-05-27T16:03:41.961Z,6.65
2018-05-27T16:06:10.955Z,6.32
2018-05-27T16:08:39.968Z,6.30
2018-05-27T16:11:08.199Z,6.30
2018-05-27T16:13:36.434Z,6.40
2018-05-27T16:16:04.679Z,6.18
2018-05-27T16:18:32.907Z,6.95
2018-05-27T16:21:01.172Z,6.22
2018-05-27T16:23:29.400Z,6.10
2018-05-27T16:25:57.728Z,6.37
2018-05-27T16:28:25.960Z,6.55
2018-05-27T16:30:54.212Z,6.15
2018-05-27T16:33:23.234Z,6.45
2018-05-27T16:35:51.483Z,6.80
2018-05-27T16:38:20.483Z,7.70
2018-05-27T16:40:48.778Z,6.85
2018-05-27T16:43:17.722Z,6.43
2018-05-27T16:45:46.750Z,6.70
2018-05-27T16:48:14.969Z,6.80
2018-05-27T16:50:43.211Z,6.80
2018-05-27T16:53:11.460Z,7.62
2018-05-27T16:55:40.472Z,6.40
2018-05-27T16:58:08.709Z,6.75
2018-05-27T17:00:37.729Z,6.35
2018-05-27T17:03:05.964Z,6.55
2018-05-27T17:05:34.192Z,6.72
2018-05-27T17:08:02.423Z,7.60
2018-05-27T17:10:31.433Z,6.53
2018-05-27T17:12:59.673Z,7.07
2018-05-27T17:15:27.912Z,6.50
2018-05-27T17:17:56.229Z,6.80
2018-05-27T17:20:24.479Z,8.32
2018-05-27T17:22:52.738Z,6.95
2018-05-27T17:25:20.967Z,7.10
2018-05-27T17:27:49.964Z,7.03
2018-05-27T17:30:18.270Z,7.00
2018-05-27T17:32:46.497Z,6.68
2018-05-27T17:35:15.310Z,7.22
2018-05-27T17:37:43.553Z,7.00
2018-05-27T17:40:11.779Z,7.03
2018-05-27T17:42:40.018Z,9.27
2018-05-27T17:45:09.067Z,7.93
2018-05-27T17:47:37.277Z,6.57
2018-05-27T17:50:06.333Z,6.40
2018-05-27T17:52:34.554Z,6.23
2018-05-27T17:55:02.806Z,6.33
2018-05-27T17:57:31.819Z,6.53
2018-05-27T18:00:00.828Z,5.33
2018-05-27T18:02:29.063Z,8.23
2018-05-27T18:04:57.298Z,6.93
2018-05-27T18:07:25.532Z,10.30
2018-05-27T18:09:53.852Z,5.77
2018-05-27T18:12:22.024Z,5.63
2018-05-27T18:14:50.250Z,5.53
2018-05-27T18:17:19.265Z,6.77
2018-05-27T18:19:47.484Z,5.67
2018-05-27T18:22:15.726Z,6.07
2018-05-27T18:24:43.961Z,6.73
2018-05-27T18:27:12.960Z,5.73
2018-05-27T18:29:41.191Z,5.67
2018-05-27T18:32:09.432Z,8.03
2018-05-27T18:34:37.672Z,5.63
2018-05-27T18:37:06.687Z,5.63
2018-05-27T18:39:34.913Z,5.37
2018-05-27T18:42:03.160Z,5.60
2018-05-27T18:44:31.379Z,6.23
2018-05-27T18:47:00.387Z,5.77
2018-05-27T18:49:28.619Z,7.77
2018-05-27T18:51:56.859Z,6.70
2018-05-27T18:54:25.090Z,6.23
2018-05-27T18:56:54.099Z,6.30
2018-05-27T18:59:23.087Z,6.50
2018-05-27T19:01:52.116Z,6.33
2018-05-27T19:04:20.359Z,6.57
2018-05-27T19:06:49.348Z,6.30
2018-05-27T19:09:17.583Z,6.40
2018-05-27T19:11:45.830Z,6.40
2018-05-27T19:14:14.072Z,6.50
2018-05-27T19:16:42.311Z,6.43
2018-05-27T19:19:10.534Z,6.33
2018-05-27T19:21:38.779Z,6.23
2018-05-27T19:24:07.775Z,6.37
2018-05-27T19:26:36.792Z,6.87
2018-05-27T19:29:05.051Z,6.47
2018-05-27T19:31:33.297Z,7.33
2018-05-27T19:34:01.539Z,6.70
2018-05-27T19:36:29.775Z,8.70
2018-05-27T19:38:58.775Z,7.40
2018-05-27T19:41:27.071Z,6.50
2018-05-27T19:43:55.291Z,7.20
2018-05-27T19:46:24.304Z,6.33
2018-05-27T19:48:52.527Z,7.00
2018-05-27T19:51:20.767Z,6.77
2018-05-27T19:53:49.003Z,7.03
2018-05-27T19:56:18.016Z,6.70
2018-05-27T19:58:46.240Z,7.17
2018-05-27T20:01:15.515Z,7.00
2018-05-27T20:03:43.747Z,7.13
2018-05-27T20:06:12.746Z,7.47
2018-05-27T20:08:41.763Z,7.23
2018-05-27T20:11:09.991Z,7.20
2018-05-27T20:13:39.005Z,7.10
2018-05-27T20:16:08.274Z,7.50
2018-05-27T20:18:36.497Z,7.83
2018-05-27T20:21:04.723Z,7.57
2018-05-27T20:23:32.969Z,7.03
2018-05-27T20:26:01.192Z,8.03
2018-05-27T20:28:30.198Z,8.27
2018-05-27T20:30:58.439Z,8.10
2018-05-27T20:33:26.696Z,9.23
2018-05-27T20:35:54.935Z,8.10
2018-05-27T20:38:23.171Z,8.20
2018-05-27T20:40:51.411Z,9.17
2018-05-27T20:43:20.505Z,8.77
2018-05-27T20:45:49.516Z,8.20
2018-05-27T20:48:18.529Z,8.20
2018-05-27T20:50:46.807Z,8.10
2018-05-27T20:53:15.047Z,8.20
2018-05-27T20:55:44.051Z,8.33
2018-05-27T20:58:12.299Z,9.40
2018-05-27T21:00:40.531Z,8.43
2018-05-27T21:03:08.773Z,9.13
2018-05-27T21:05:36.999Z,8.97
2018-05-27T21:08:05.248Z,8.77
2018-05-27T21:10:33.474Z,9.80
2018-05-27T21:13:02.969Z,9.80
2018-05-27T21:15:31.179Z,9.97
2018-05-27T21:17:59.427Z,9.37
2018-05-27T21:20:28.423Z,9.23
2018-05-27T21:22:57.433Z,9.17
2018-05-27T21:25:25.655Z,8.97
2018-05-27T21:27:53.895Z,10.07
2018-05-27T21:30:22.134Z,10.07
2018-05-27T21:32:51.154Z,9.87
2018-05-27T21:35:19.381Z,9.57
2018-05-27T21:37:47.611Z,9.30
2018-05-27T21:40:15.835Z,10.03
2018-05-27T21:42:44.852Z,10.43
2018-05-27T21:45:13.078Z,9.63
2018-05-27T21:47:41.310Z,10.07
2018-05-27T21:50:09.555Z,9.63
2018-05-27T21:52:38.552Z,10.70
2018-05-27T21:55:07.598Z,11.10
2018-05-27T21:57:35.831Z,10.73
2018-05-27T22:00:04.084Z,10.60
2018-05-27T22:02:33.090Z,11.47
2018-05-27T22:05:02.091Z,10.73
2018-05-27T22:07:30.339Z,10.57
2018-05-27T22:09:59.355Z,10.53
2018-05-27T22:12:27.604Z,12.27
2018-05-27T22:14:56.631Z,11.63
2018-05-27T22:17:24.878Z,11.60
2018-05-27T22:19:53.891Z,12.33
2018-05-27T22:22:22.185Z,12.87
2018-05-27T22:24:50.437Z,12.40
2018-05-27T22:27:18.683Z,12.47
2018-05-27T22:29:47.801Z,12.73
2018-05-27T22:32:16.797Z,12.77
2018-05-27T22:34:45.054Z,12.17
2018-05-27T22:37:14.071Z,12.77
2018-05-27T22:39:42.335Z,12.07
2018-05-27T22:42:10.689Z,12.07
2018-05-27T22:44:38.922Z,11.90
2018-05-27T22:47:07.168Z,11.83
2018-05-27T22:49:35.403Z,10.73
2018-05-27T22:52:03.665Z,11.13
2018-05-27T22:54:31.906Z,11.83
2018-05-27T22:57:00.157Z,13.07
2018-05-27T22:59:28.395Z,12.00
2018-05-27T23:01:56.718Z,12.70
2018-05-27T23:04:25.702Z,11.83
2018-05-27T23:06:53.954Z,11.37
2018-05-27T23:09:22.958Z,11.83
2018-05-27T23:11:51.217Z,11.00
2018-05-27T23:14:20.230Z,11.30
2018-05-27T23:16:48.479Z,10.47
2018-05-27T23:19:17.486Z,11.03
2018-05-27T23:21:46.504Z,10.90
2018-05-27T23:24:14.739Z,11.77
2018-05-27T23:26:43.758Z,10.70
2018-05-27T23:29:11.999Z,10.47
2018-05-27T23:31:40.239Z,11.07
2018-05-27T23:34:08.483Z,12.00
2018-05-27T23:36:36.734Z,11.67
2018-05-27T23:39:05.740Z,11.60
2018-05-27T23:41:33.982Z,11.50
2018-05-27T23:44:02.258Z,11.73
2018-05-27T23:46:30.480Z,12.17
2018-05-27T23:48:58.736Z,12.40
2018-05-27T23:51:26.980Z,11.77
2018-05-27T23:53:55.232Z,12.33
2018-05-27T23:56:23.471Z,12.50
2018-05-27T23:58:51.719Z,12.73
